Station: Clare  

  Atmospheric Gas Attenuation - ITU Rec 676-11   ----------------- dB/100km -----------------
Date Time Temp RH % AH g/m3 Dew Point Wind Direction Speed kph Gust kph Barometer mB Rainfall Since 9am 24GHz 47GHz 76GHz 122GHz 134GHz 241GHz
05/05 02:30 7.8 96 7.84 7.2 0 0 1021.4 12.6 18.2 26.7 40.1 105.0 96.3 330.2
05/05 02:20 7.9 96 7.89 7.3 0 0 1021.5 12.6 18.3 26.8 40.2 105.4 96.9 332.3
05/05 02:10 8.1 96 7.99 7.5 0 0 1021.6 12.6 18.5 26.9 40.6 106.3 98.0 336.3
05/05 02:00 8.4 96 8.15 7.8 0 0 1021.4 12.6 18.9 27.1 41.1 107.7 99.9 342.8
05/05 01:50 8.5 96 8.2 7.9 0 0 1021.5 12.6 19.0 27.1 41.2 108.1 100.5 344.9
05/05 01:40 8.4 96 8.15 7.8 0 0 1021.5 12.6 18.9 27.1 41.1 107.7 99.9 342.9
05/05 01:30 8.3 95 8.01 7.5 0 0 1021.5 12.6 18.6 26.9 40.5 106.2 98.1 336.4
05/05 01:20 8.7 96 8.31 8.1 0 0 1021.5 12.6 19.2 27.3 41.6 109.1 101.8 349.4
05/05 01:10 8.7 95 8.22 7.9 0 0 1021.5 12.6 19.0 27.1 41.2 108.1 100.5 345.0
05/05 01:00 8.9 95 8.32 8.1 0 0 1021.4 12.6 19.2 27.2 41.5 108.9 101.6 349.0
05/05 00:50 9.2 95 8.49 8.4 0 0 1021.5 12.6 19.6 27.4 42.1 110.4 103.6 356.0
05/05 00:40 9.3 95 8.54 8.5 0 2 1021.4 12.6 19.7 27.5 42.3 110.9 104.2 358.0
05/05 00:30 9.8 95 8.82 9 2 7 1021.3 12.6 20.3 27.8 43.2 113.3 107.4 369.5
05/05 00:20 10.1 95 8.99 9.3 0 0 1021.3 12.6 20.6 28.0 43.8 114.8 109.4 376.4
05/05 00:10 10.3 95 9.1 9.5 0 0 1021.3 12.6 20.8 28.1 44.1 115.8 110.7 380.9
05/05 00:00 10.2 95 9.04 9.4 0 0 1021.3 12.6 20.7 28.0 43.9 115.3 110.0 378.4
04/05 23:50 10.2 95 9.04 9.4 0 0 1021.3 12.6 20.7 28.0 43.9 115.3 110.0 378.4
04/05 23:40 10.1 95 8.99 9.3 0 0 1021.3 12.6 20.6 28.0 43.8 114.8 109.4 376.4
04/05 23:30 10.1 95 8.99 9.3 0 0 1021.1 12.6 20.6 28.0 43.7 114.8 109.4 376.4
04/05 23:20 10.1 94 8.89 9.2 0 0 1021.2 12.6 20.4 27.8 43.3 113.7 108.0 371.5
04/05 23:10 10 94 8.83 9.1 0 0 1021.2 12.6 20.3 27.7 43.1 113.1 107.3 369.0
04/05 23:00 10.1 93 8.8 9 0 0 1021 12.6 20.2 27.6 42.9 112.6 106.7 367.0
04/05 22:50 10.4 93 8.97 9.3 0 0 1021.1 12.6 20.5 27.8 43.5 114.2 108.7 373.9
04/05 22:40 10.5 93 9.02 9.4 4 6 1021 12.6 20.6 27.9 43.6 114.6 109.2 375.9
04/05 22:30 10.5 93 9.02 9.4 6 9 1020.9 12.6 20.6 27.9 43.6 114.6 109.2 375.9
04/05 22:20 10.7 93 9.14 9.6 2 4 1021 12.6 20.9 28.0 44.0 115.6 110.7 380.8
04/05 22:10 10.8 93 9.19 9.7 4 6 1021.2 12.6 21.0 28.1 44.2 116.1 111.2 382.9
04/05 22:00 10.8 94 9.29 9.9 6 7 1021.1 12.6 21.2 28.3 44.6 117.2 112.6 387.8
04/05 21:50 10.8 94 9.29 9.9 2 6 1021.2 12.6 21.2 28.3 44.6 117.2 112.7 387.8
04/05 21:40 10.7 95 9.33 9.9 6 6 1021.1 12.6 21.3 28.4 44.9 117.8 113.4 390.3
04/05 21:30 10.6 95 9.27 9.8 0 0 1021 12.6 21.2 28.3 44.7 117.3 112.6 387.8
04/05 21:20 10.5 94 9.12 9.6 0 0 1021 12.6 20.9 28.1 44.1 115.7 110.7 380.8
04/05 21:10 10.4 94 9.06 9.5 0 0 1020.9 12.6 20.7 28.0 43.9 115.2 109.9 378.3
04/05 21:00 10.4 92 8.87 9.2 0 0 1020.7 12.6 20.3 27.7 43.0 113.0 107.2 368.9
04/05 20:50 10.5 92 8.92 9.3 0 0 1020.6 12.6 20.4 27.7 43.2 113.4 107.8 370.8
04/05 20:40 10.7 93 9.14 9.6 4 6 1020.4 12.6 20.9 28.0 44.0 115.6 110.6 380.7
04/05 20:30 10.6 94 9.18 9.7 7 11 1020.2 12.6 21.0 28.1 44.2 116.2 111.3 383.1
04/05 20:20 10.2 95 9.04 9.4 7 9 1020 12.6 20.7 28.0 43.9 115.1 109.9 378.0
04/05 20:10 9.8 95 8.82 9 7 9 1020 12.6 20.3 27.7 43.1 113.2 107.3 369.1
04/05 20:00 9.5 94 8.56 8.6 0 6 1020 12.6 19.7 27.4 42.2 110.6 104.1 357.7
04/05 19:50 9.5 93 8.47 8.4 0 0 1019.9 12.6 19.5 27.2 41.8 109.6 102.8 353.2
04/05 19:40 9.7 92 8.48 8.5 0 0 1019.8 12.6 19.5 27.2 41.7 109.4 102.7 352.8
04/05 19:30 9.8 91 8.45 8.4 0 2 1019.5 12.6 19.5 27.1 41.5 108.9 102.1 350.8
04/05 19:20 10.3 92 8.81 9.1 2 6 1019.5 12.6 20.2 27.5 42.8 112.3 106.4 366.1
04/05 19:10 10.4 90 8.68 8.8 0 2 1019.3 12.6 19.9 27.3 42.2 110.7 104.5 359.2
04/05 19:00 10.6 89 8.69 8.9 4 7 1018.9 12.6 19.9 27.2 42.1 110.4 104.3 358.6
04/05 18:50 10.7 89 8.74 9 6 6 1018.9 12.6 20.0 27.3 42.2 110.9 104.9 360.6
04/05 18:40 11.1 88 8.87 9.2 6 6 1018.7 12.6 20.3 27.4 42.6 111.7 106.1 365.0
04/05 18:30 11.4 87 8.93 9.3 7 13 1018.5 12.6 20.4 27.4 42.6 112.0 106.5 366.4
04/05 18:20 11.6 86 8.94 9.3 7 9 1018.4 12.6 20.4 27.3 42.6 111.8 106.3 366.0
04/05 18:10 11.7 86 9 9.4 7 9 1018.3 12.6 20.5 27.4 42.8 112.3 107.0 368.4
04/05 18:00 12 86 9.17 9.7 9 15 1018 12.6 20.9 27.6 43.3 113.7 108.9 375.1
04/05 17:50 12.2 87 9.39 10.1 9 15 1017.9 12.6 21.4 27.9 44.1 115.9 111.7 384.8
04/05 17:40 12.4 86 9.4 10.1 11 13 1017.8 12.6 21.4 27.8 44.0 115.7 111.5 384.2
04/05 17:30 12.7 84 9.35 10.1 11 24 1017.6 12.6 21.2 27.6 43.7 114.7 110.4 380.3
04/05 17:20 13.1 81 9.24 9.9 9 13 1017.6 12.6 21.0 27.3 43.0 112.9 108.3 373.0
04/05 17:10 13.3 84 9.71 10.7 13 19 1017.5 12.6 22.0 28.1 44.8 117.8 114.5 394.7
04/05 17:00 13.4 84 9.77 10.8 13 24 1017.3 12.6 22.1 28.1 45.0 118.3 115.2 397.0
04/05 16:50 13.7 83 9.83 10.9 15 20 1017.3 12.6 22.2 28.1 45.1 118.5 115.5 398.4
04/05 16:40 13.9 86 10.31 11.6 13 20 1017.3 12.6 23.2 28.9 47.0 123.7 121.9 420.8
04/05 16:30 13.5 89 10.41 11.7 13 24 1017.1 12.6 23.5 29.2 47.7 125.4 124.0 427.8
04/05 16:20 14 92 11.1 12.7 6 7 1017.1 12.6 24.9 30.2 50.4 132.6 133.0 459.4
04/05 16:10 13.8 92 10.96 12.5 11 17 1017.1 12.6 24.6 30.0 49.9 131.3 131.3 453.5
04/05 16:00 13.2 91 10.45 11.8 11 20 1017 12.6 23.6 29.3 48.0 126.4 125.0 431.4
04/05 15:50 13.2 88 10.1 11.3 15 20 1017.1 12.2 22.8 28.7 46.5 122.4 120.1 414.1
04/05 15:40 14.4 89 11 12.6 11 13 1017 10.8 24.7 29.9 49.7 130.8 130.9 452.0
04/05 15:30 14.4 90 11.13 12.8 13 24 1016.8 10.8 25.0 30.1 50.2 132.2 132.7 458.4
04/05 15:20 13.9 92 11.03 12.6 15 22 1016.9 10.8 24.8 30.1 50.1 131.9 132.1 456.4
04/05 15:10 13.4 94 10.93 12.5 9 11 1016.8 10.8 24.6 30.1 50.0 131.6 131.6 454.3
04/05 15:00 12.7 95 10.58 11.9 9 15 1016.7 10.8 23.9 29.7 48.9 128.7 127.7 440.7
04/05 14:50 12.5 95 10.45 11.7 11 15 1016.8 10.8 23.6 29.6 48.5 127.5 126.2 435.3
04/05 14:40 12.4 95 10.38 11.6 11 13 1016.7 10.8 23.5 29.5 48.2 126.8 125.3 432.3
04/05 14:30 12.6 96 10.62 12 11 20 1016.6 10.8 24.0 29.8 49.1 129.3 128.4 443.2
04/05 14:20 12.4 96 10.49 11.8 11 15 1016.7 10.8 23.7 29.7 48.7 128.1 126.9 437.9
04/05 14:10 12.3 96 10.43 11.7 15 20 1016.6 10.6 23.6 29.6 48.5 127.6 126.2 435.4
04/05 14:00 12.2 95 10.25 11.4 11 24 1016.5 10.6 23.2 29.3 47.8 125.6 123.7 426.9
04/05 13:50 12.2 96 10.36 11.6 11 15 1016.5 9.6 23.4 29.5 48.2 126.9 125.3 432.4
04/05 13:40 12 95 10.13 11.2 13 17 1016.5 9.2 23.0 29.2 47.4 124.6 122.3 421.9
04/05 13:30 12.3 95 10.32 11.5 11 22 1016.4 8.6 23.4 29.4 48.0 126.3 124.6 429.8
04/05 13:20 12.5 96 10.56 11.9 9 11 1016.4 8.4 23.9 29.7 48.9 128.7 127.7 440.7
04/05 13:10 12.2 95 10.25 11.4 15 17 1016.5 8.4 23.2 29.3 47.8 125.6 123.7 426.9
04/05 13:00 11.9 95 10.06 11.1 9 15 1016.3 8.2 22.8 29.1 47.1 123.9 121.5 418.9
04/05 12:50 12.2 95 10.25 11.4 9 11 1016.4 6.6 23.2 29.3 47.8 125.6 123.7 426.8
04/05 12:40 12.2 95 10.25 11.4 9 13 1016.5 6.2 23.2 29.3 47.8 125.6 123.7 426.9
04/05 12:30 12.2 95 10.25 11.4 13 24 1016.5 5.4 23.2 29.3 47.8 125.6 123.7 426.9
04/05 12:20 12.1 94 10.08 11.2 15 20 1016.6 5.2 22.9 29.0 47.1 123.8 121.5 418.9
04/05 12:10 12.7 95 10.58 11.9 13 20 1016.6 5.2 23.9 29.7 48.9 128.7 127.7 440.7
04/05 12:00 12.5 95 10.45 11.7 17 24 1016.4 5 23.6 29.6 48.4 127.5 126.1 435.2
04/05 11:50 12.6 95 10.51 11.8 20 26 1016.6 4.8 23.7 29.6 48.7 128.0 126.8 437.7
04/05 11:40 12.1 96 10.3 11.5 24 30 1016.7 4.8 23.3 29.4 48.1 126.4 124.6 430.0
04/05 11:30 12.1 96 10.3 11.5 15 30 1016.7 4.2 23.3 29.4 48.1 126.4 124.6 430.0
04/05 11:20 12.3 96 10.43 11.7 20 24 1016.8 3.8 23.6 29.6 48.5 127.6 126.2 435.4
04/05 11:10 12 96 10.23 11.4 20 26 1016.7 3.8 23.2 29.3 47.8 125.7 123.8 427.0
04/05 11:00 11.9 96 10.17 11.3 17 26 1016.6 3.4 23.1 29.3 47.6 125.2 123.1 424.5
04/05 10:50 12.1 95 10.19 11.3 22 26 1016.4 2.4 23.1 29.2 47.6 125.1 123.0 424.4
04/05 10:40 11.8 95 10 11 20 30 1016.4 1.2 22.7 29.0 46.9 123.4 120.8 416.5
04/05 10:30 11.9 96 10.17 11.3 17 28 1016.3 1 23.1 29.3 47.6 125.2 123.1 424.4
04/05 10:20 11.7 95 9.94 10.9 17 24 1016.4 1 22.6 28.9 46.7 122.8 120.1 414.0
04/05 10:10 11.7 96 10.04 11.1 11 15 1016.3 0.8 22.8 29.1 47.1 124.0 121.5 419.0
04/05 10:00 11.5 96 9.92 10.9 19 32 1016.2 0.8 22.5 28.9 46.7 122.9 120.1 414.0

Last Refresh: 05-May-2026 02:37:29

Bureau of Meteorology